createdAt,value
2023-04-24T00:00:11.411Z,3.55
2023-04-24T00:02:39.817Z,3.40
2023-04-24T00:05:08.845Z,3.88
2023-04-24T00:07:36.091Z,3.75
2023-04-24T00:10:03.356Z,3.58
2023-04-24T00:12:30.758Z,3.70
2023-04-24T00:14:57.865Z,3.55
2023-04-24T00:17:25.001Z,3.50
2023-04-24T00:19:52.325Z,3.28
2023-04-24T00:22:21.787Z,3.85
2023-04-24T00:24:48.869Z,3.80
2023-04-24T00:27:16.027Z,3.95
2023-04-24T00:29:43.410Z,3.65
2023-04-24T00:32:10.886Z,3.63
2023-04-24T00:34:38.044Z,3.80
2023-04-24T00:37:05.275Z,4.05
2023-04-24T00:39:32.770Z,3.70
2023-04-24T00:42:00.167Z,4.25
2023-04-24T00:44:27.279Z,3.97
2023-04-24T00:46:55.912Z,4.03
2023-04-24T00:49:23.502Z,4.03
2023-04-24T00:51:52.173Z,4.35
2023-04-24T00:54:19.790Z,4.35
2023-04-24T00:56:47.302Z,3.55
2023-04-24T00:59:17.000Z,3.72
2023-04-24T01:01:46.339Z,4.25
2023-04-24T01:04:15.267Z,4.63
2023-04-24T01:06:46.035Z,4.32
2023-04-24T01:09:14.377Z,4.65
2023-04-24T01:11:44.027Z,4.75
2023-04-24T01:14:11.190Z,4.85
2023-04-24T01:16:39.299Z,4.40
2023-04-24T01:19:08.072Z,4.85
2023-04-24T01:21:39.211Z,4.90
2023-04-24T01:24:07.729Z,5.28
2023-04-24T01:26:35.331Z,4.90
2023-04-24T01:29:02.497Z,5.15
2023-04-24T01:31:30.940Z,5.47
2023-04-24T01:33:58.410Z,4.88
2023-04-24T01:36:28.334Z,5.43
2023-04-24T01:38:56.009Z,5.57
2023-04-24T01:41:23.426Z,5.55
2023-04-24T01:43:51.151Z,5.25
2023-04-24T01:46:18.443Z,5.47
2023-04-24T01:48:46.791Z,5.95
2023-04-24T01:51:13.927Z,5.80
2023-04-24T01:53:41.099Z,5.90
2023-04-24T01:56:08.292Z,5.60
2023-04-24T01:58:35.677Z,5.38
2023-04-24T02:01:02.780Z,5.35
2023-04-24T02:03:30.172Z,5.90
2023-04-24T02:05:57.365Z,5.43
2023-04-24T02:08:25.011Z,6.15
2023-04-24T02:10:52.375Z,5.72
2023-04-24T02:13:19.418Z,5.43
2023-04-24T02:15:46.518Z,5.60
2023-04-24T02:18:13.882Z,6.10
2023-04-24T02:20:41.291Z,5.90
2023-04-24T02:23:11.435Z,5.88
2023-04-24T02:25:38.640Z,5.68
2023-04-24T02:28:05.857Z,5.85
2023-04-24T02:30:32.975Z,7.15
2023-04-24T02:33:00.091Z,6.00
2023-04-24T02:35:27.379Z,6.63
2023-04-24T02:37:54.482Z,6.00
2023-04-24T02:40:21.540Z,6.70
2023-04-24T02:42:48.597Z,5.80
2023-04-24T02:45:15.893Z,6.00
2023-04-24T02:47:42.993Z,5.65
2023-04-24T02:50:10.267Z,4.95
2023-04-24T02:52:37.432Z,5.13
2023-04-24T02:55:05.417Z,4.53
2023-04-24T02:57:32.620Z,3.90
2023-04-24T02:59:59.662Z,4.22
2023-04-24T03:02:26.906Z,4.13
2023-04-24T03:04:54.201Z,4.20
2023-04-24T03:07:21.868Z,4.22
2023-04-24T03:09:49.150Z,3.88
2023-04-24T03:12:18.137Z,3.45
2023-04-24T03:14:45.558Z,3.67
2023-04-24T03:17:12.734Z,3.22
2023-04-24T03:19:40.336Z,3.90
2023-04-24T03:22:07.547Z,3.67
2023-04-24T03:24:34.629Z,3.40
2023-04-24T03:27:01.844Z,3.20
2023-04-24T03:29:30.356Z,3.10
2023-04-24T03:31:57.692Z,3.22
2023-04-24T03:34:24.864Z,3.60
2023-04-24T03:36:51.999Z,3.13
2023-04-24T03:39:19.190Z,3.28
2023-04-24T03:41:46.251Z,3.35
2023-04-24T03:44:13.422Z,3.33
2023-04-24T03:46:40.623Z,3.40
2023-04-24T03:49:07.747Z,3.17
2023-04-24T03:51:34.858Z,3.38
2023-04-24T03:54:01.931Z,3.83
2023-04-24T03:56:28.974Z,3.40
2023-04-24T03:58:56.374Z,3.10
2023-04-24T04:01:24.148Z,3.20
2023-04-24T04:03:51.381Z,3.50
2023-04-24T04:06:19.289Z,3.50
2023-04-24T04:08:46.437Z,3.63
2023-04-24T04:11:13.665Z,3.10
2023-04-24T04:13:40.770Z,3.75
2023-04-24T04:16:08.014Z,3.47
2023-04-24T04:18:35.363Z,3.35
2023-04-24T04:21:02.519Z,3.13
2023-04-24T04:23:29.601Z,2.80
2023-04-24T04:25:56.665Z,3.28
2023-04-24T04:28:25.676Z,2.97
2023-04-24T04:30:54.938Z,3.15
2023-04-24T04:33:22.851Z,2.90
2023-04-24T04:35:50.685Z,2.80
2023-04-24T04:38:17.898Z,2.65
2023-04-24T04:40:46.406Z,2.55
2023-04-24T04:43:17.055Z,2.55
2023-04-24T04:45:44.497Z,2.60
2023-04-24T04:48:14.554Z,3.10
2023-04-24T04:50:41.670Z,2.60
2023-04-24T04:53:08.828Z,2.70
2023-04-24T04:55:35.995Z,2.72
2023-04-24T04:58:03.215Z,2.70
2023-04-24T05:00:36.107Z,2.50
2023-04-24T05:03:19.107Z,2.33
2023-04-24T05:05:47.724Z,2.60
2023-04-24T05:10:45.070Z,2.50
2023-04-24T05:13:14.037Z,2.17
2023-04-24T05:15:41.342Z,2.45
2023-04-24T05:18:09.076Z,1.98
2023-04-24T05:20:36.303Z,2.50
2023-04-24T05:23:03.442Z,2.10
2023-04-24T05:25:33.151Z,1.88
2023-04-24T05:28:00.310Z,2.17
2023-04-24T05:30:27.537Z,2.20
2023-04-24T05:32:54.623Z,2.10
2023-04-24T05:35:21.895Z,2.15
2023-04-24T05:37:48.994Z,1.75
2023-04-24T05:40:16.091Z,1.70
2023-04-24T05:42:43.174Z,2.00
2023-04-24T05:45:15.648Z,1.95
2023-04-24T05:47:42.784Z,1.98
2023-04-24T05:50:10.427Z,1.92
2023-04-24T05:52:37.554Z,1.77
2023-04-24T05:55:05.141Z,1.42
2023-04-24T05:57:33.455Z,1.70
2023-04-24T06:00:05.193Z,1.65
2023-04-24T06:02:33.888Z,1.70
2023-04-24T06:05:01.292Z,2.00
2023-04-24T06:07:28.577Z,2.78
2023-04-24T06:09:55.687Z,1.42
2023-04-24T06:12:22.804Z,1.65
2023-04-24T06:14:50.047Z,1.40
2023-04-24T06:17:17.478Z,1.63
2023-04-24T06:19:45.241Z,1.48
2023-04-24T06:22:12.623Z,1.58
2023-04-24T06:24:41.186Z,1.65
2023-04-24T06:27:08.720Z,1.92
2023-04-24T06:29:37.638Z,1.45
2023-04-24T06:32:04.914Z,1.30
2023-04-24T06:34:35.009Z,1.42
2023-04-24T06:37:02.351Z,1.40
2023-04-24T06:39:29.398Z,1.60
2023-04-24T06:41:57.014Z,1.73
2023-04-24T06:44:24.057Z,1.08
2023-04-24T06:46:51.172Z,1.83
2023-04-24T06:49:18.416Z,1.42
2023-04-24T06:51:45.607Z,1.30
2023-04-24T06:54:12.655Z,1.20
2023-04-24T06:56:39.884Z,1.83
2023-04-24T06:59:07.161Z,1.40
2023-04-24T07:01:34.326Z,1.38
2023-04-24T07:04:01.694Z,1.40
2023-04-24T07:06:29.061Z,1.40
2023-04-24T07:08:57.055Z,1.60
2023-04-24T07:11:24.958Z,1.45
2023-04-24T07:13:52.072Z,1.60
2023-04-24T07:16:19.228Z,1.35
2023-04-24T07:18:46.292Z,1.25
2023-04-24T07:21:13.370Z,1.45
2023-04-24T07:23:42.349Z,1.50
2023-04-24T07:26:09.573Z,1.38
2023-04-24T07:28:36.720Z,1.48
2023-04-24T07:31:03.864Z,1.48
2023-04-24T07:33:31.470Z,1.45
2023-04-24T07:35:58.649Z,1.20
2023-04-24T07:38:26.938Z,1.40
2023-04-24T07:40:54.175Z,1.38
2023-04-24T07:43:22.346Z,1.30
2023-04-24T07:45:49.700Z,1.40
2023-04-24T07:48:18.807Z,1.38
2023-04-24T07:50:46.528Z,1.10
2023-04-24T07:53:13.602Z,1.10
2023-04-24T07:55:40.826Z,1.35
2023-04-24T07:58:07.979Z,1.58
2023-04-24T08:00:35.062Z,1.40
2023-04-24T08:03:02.904Z,1.58
2023-04-24T08:05:30.318Z,1.40
2023-04-24T08:07:57.664Z,1.42
2023-04-24T08:10:25.292Z,1.30
2023-04-24T08:12:52.580Z,1.35
2023-04-24T08:15:19.678Z,1.20
2023-04-24T08:17:46.766Z,1.17
2023-04-24T08:20:17.177Z,1.38
2023-04-24T08:22:45.067Z,1.35
2023-04-24T08:25:12.598Z,1.13
2023-04-24T08:27:40.090Z,1.45
2023-04-24T08:30:08.598Z,1.25
2023-04-24T08:32:37.440Z,1.30
2023-04-24T08:35:05.217Z,1.33
2023-04-24T08:37:32.419Z,1.30
2023-04-24T08:39:59.448Z,1.30
2023-04-24T08:42:29.458Z,1.23
2023-04-24T08:44:57.654Z,1.20
2023-04-24T08:47:25.795Z,1.08
2023-04-24T08:49:54.399Z,1.10
2023-04-24T08:52:22.959Z,0.90
2023-04-24T08:54:50.403Z,0.98
2023-04-24T08:57:19.317Z,0.85
2023-04-24T08:59:47.899Z,0.88
2023-04-24T09:02:16.089Z,1.00
2023-04-24T09:04:45.547Z,0.90
2023-04-24T09:07:15.335Z,0.77
2023-04-24T09:09:43.364Z,1.13
2023-04-24T09:12:11.119Z,0.93
2023-04-24T09:14:43.576Z,0.90
2023-04-24T09:17:10.847Z,1.02
2023-04-24T09:19:38.175Z,0.80
2023-04-24T09:22:12.372Z,1.08
2023-04-24T09:24:40.131Z,0.80
2023-04-24T09:27:08.933Z,0.82
2023-04-24T09:29:37.840Z,0.63
2023-04-24T09:32:26.689Z,1.20
2023-04-24T09:35:26.401Z,0.70
2023-04-24T09:37:53.560Z,0.82
2023-04-24T09:40:23.406Z,0.93
2023-04-24T09:43:03.902Z,0.63
2023-04-24T09:45:39.137Z,0.75
2023-04-24T09:48:09.994Z,0.60
2023-04-24T09:50:37.155Z,0.82
2023-04-24T09:53:06.996Z,0.70
2023-04-24T09:55:34.515Z,0.70
2023-04-24T09:58:05.991Z,0.70
2023-04-24T10:00:34.937Z,0.52
2023-04-24T10:03:04.904Z,0.80
2023-04-24T10:05:34.554Z,0.70
2023-04-24T10:08:06.054Z,0.70
2023-04-24T10:10:35.529Z,0.40
2023-04-24T10:13:02.966Z,0.60
2023-04-24T10:15:30.957Z,0.60
2023-04-24T10:18:00.462Z,0.60
2023-04-24T10:20:31.804Z,0.50
2023-04-24T10:23:00.830Z,0.47
2023-04-24T10:25:33.661Z,0.60
2023-04-24T10:28:02.255Z,0.50
2023-04-24T10:30:36.330Z,0.65
2023-04-24T10:33:14.236Z,0.60
2023-04-24T10:35:46.758Z,0.73
2023-04-24T10:38:17.891Z,0.50
2023-04-24T10:40:45.352Z,0.80
2023-04-24T10:43:19.671Z,0.80
2023-04-24T10:46:07.404Z,0.80
2023-04-24T10:48:35.040Z,0.63
2023-04-24T10:51:02.774Z,0.70
2023-04-24T10:53:35.970Z,0.90
2023-04-24T10:56:14.482Z,0.70
2023-04-24T10:58:53.223Z,0.60
2023-04-24T11:01:34.086Z,0.88
2023-04-24T11:04:04.522Z,0.98
2023-04-24T11:06:37.856Z,0.93
2023-04-24T11:09:10.958Z,0.60
2023-04-24T11:11:45.079Z,0.70
2023-04-24T11:14:15.080Z,0.70
2023-04-24T11:16:56.283Z,0.73
2023-04-24T11:19:29.642Z,0.70
2023-04-24T11:22:18.299Z,0.60
2023-04-24T11:24:48.433Z,0.82
2023-04-24T11:27:20.736Z,0.60
2023-04-24T11:30:02.647Z,0.70
2023-04-24T11:32:43.635Z,0.75
2023-04-24T11:35:25.860Z,0.80
2023-04-24T11:40:26.663Z,0.95
2023-04-24T11:42:58.429Z,0.95
2023-04-24T11:45:31.746Z,0.77
2023-04-24T11:47:59.917Z,1.10
2023-04-24T11:50:28.941Z,0.85
2023-04-24T11:52:57.080Z,0.70
2023-04-24T11:55:27.818Z,0.80
2023-04-24T11:57:58.388Z,1.00
2023-04-24T12:00:29.684Z,0.70
2023-04-24T12:03:12.635Z,0.90
2023-04-24T12:05:41.121Z,0.60
2023-04-24T12:08:08.478Z,0.88
2023-04-24T12:10:36.635Z,0.77
2023-04-24T12:13:03.925Z,0.80
2023-04-24T12:15:31.107Z,0.93
2023-04-24T12:17:58.647Z,0.75
2023-04-24T12:20:32.706Z,0.80
2023-04-24T12:23:02.106Z,0.70
2023-04-24T12:25:34.319Z,0.68
2023-04-24T12:28:04.180Z,0.70
2023-04-24T12:30:40.292Z,0.52
2023-04-24T12:33:07.667Z,0.77
2023-04-24T12:35:36.747Z,0.70
2023-04-24T12:38:09.515Z,0.70
2023-04-24T12:40:36.969Z,0.73
2023-04-24T12:43:21.089Z,0.98
2023-04-24T12:45:51.331Z,0.70
2023-04-24T12:48:18.571Z,0.90
2023-04-24T12:50:47.050Z,0.70
2023-04-24T12:53:15.514Z,0.75
2023-04-24T12:55:42.950Z,1.00
2023-04-24T12:58:10.289Z,0.65
2023-04-24T13:00:39.334Z,0.80
2023-04-24T13:03:06.912Z,1.13
2023-04-24T13:05:36.338Z,1.00
2023-04-24T13:08:03.674Z,1.10
2023-04-24T13:10:30.951Z,1.17
2023-04-24T13:12:58.545Z,0.90
2023-04-24T13:15:25.945Z,0.90
2023-04-24T13:17:53.025Z,0.90
2023-04-24T13:20:20.608Z,0.70
2023-04-24T13:22:47.752Z,1.15
2023-04-24T13:25:18.232Z,1.05
2023-04-24T13:27:45.452Z,0.80
2023-04-24T13:30:13.228Z,1.00
2023-04-24T13:32:40.536Z,1.15
2023-04-24T13:35:08.299Z,1.00
2023-04-24T13:37:35.448Z,1.08
2023-04-24T13:40:02.594Z,1.30
2023-04-24T13:42:30.922Z,1.30
2023-04-24T13:44:58.034Z,1.27
2023-04-24T13:47:25.128Z,1.60
2023-04-24T13:49:52.654Z,1.40
2023-04-24T13:52:19.710Z,1.55
2023-04-24T13:54:46.755Z,1.80
2023-04-24T13:57:16.206Z,1.52
2023-04-24T13:59:43.386Z,1.55
2023-04-24T14:02:10.662Z,1.55
2023-04-24T14:04:38.094Z,1.45
2023-04-24T14:07:05.460Z,1.60
2023-04-24T14:09:32.585Z,2.10
2023-04-24T14:12:07.062Z,2.10
2023-04-24T14:14:34.303Z,1.70
2023-04-24T14:17:01.338Z,1.90
2023-04-24T14:19:28.468Z,2.65
2023-04-24T14:21:57.753Z,2.22
2023-04-24T14:24:25.116Z,3.10
2023-04-24T14:26:52.186Z,4.10
2023-04-24T14:29:20.502Z,3.25
2023-04-24T14:31:47.640Z,3.28
2023-04-24T14:34:15.426Z,3.78
2023-04-24T14:36:43.323Z,5.20
2023-04-24T14:39:11.546Z,7.15
2023-04-24T14:41:40.287Z,5.88
2023-04-24T14:44:07.536Z,5.40
2023-04-24T14:46:34.852Z,3.60
2023-04-24T14:49:02.387Z,3.55
2023-04-24T14:51:29.509Z,3.13
2023-04-24T14:53:57.847Z,3.60
2023-04-24T14:56:25.424Z,4.10
2023-04-24T14:58:52.595Z,3.80
2023-04-24T15:01:19.741Z,3.33
2023-04-24T15:03:47.377Z,3.50
2023-04-24T15:06:14.977Z,3.15
2023-04-24T15:08:42.296Z,3.83
2023-04-24T15:11:13.671Z,3.92
2023-04-24T15:13:40.736Z,3.17
2023-04-24T15:16:07.860Z,3.30
2023-04-24T15:18:35.003Z,3.65
2023-04-24T15:21:02.098Z,3.80
2023-04-24T15:23:29.199Z,3.40
2023-04-24T15:25:57.137Z,2.88
2023-04-24T15:28:24.416Z,2.28
2023-04-24T15:30:51.622Z,2.20
2023-04-24T15:33:18.831Z,1.83
2023-04-24T15:35:46.543Z,1.90
2023-04-24T15:38:14.360Z,2.00
2023-04-24T15:40:41.472Z,2.08
2023-04-24T15:43:08.591Z,1.80
2023-04-24T15:45:36.337Z,1.83
2023-04-24T15:48:04.271Z,1.77
2023-04-24T15:50:31.469Z,2.08
2023-04-24T15:52:58.570Z,2.03
2023-04-24T15:55:25.757Z,1.27
2023-04-24T15:57:53.113Z,1.55
2023-04-24T16:00:21.434Z,0.93
2023-04-24T16:02:50.499Z,1.00
2023-04-24T16:05:19.964Z,0.90
2023-04-24T16:07:47.045Z,0.60
2023-04-24T16:10:14.262Z,0.98
2023-04-24T16:12:41.536Z,0.73
2023-04-24T16:15:09.267Z,0.98
2023-04-24T16:17:37.110Z,0.57
2023-04-24T16:20:05.373Z,1.00
2023-04-24T16:22:32.432Z,1.23
2023-04-24T16:25:00.073Z,0.88
2023-04-24T16:27:27.388Z,0.98
2023-04-24T16:29:56.584Z,1.00
2023-04-24T16:32:24.533Z,0.90
2023-04-24T16:34:52.118Z,0.98
2023-04-24T16:37:20.715Z,0.85
2023-04-24T16:39:48.876Z,0.95
2023-04-24T16:42:16.756Z,0.80
2023-04-24T16:44:44.255Z,1.02
2023-04-24T16:47:14.206Z,0.95
2023-04-24T16:49:42.486Z,1.15
2023-04-24T16:52:11.847Z,1.20
2023-04-24T16:54:39.089Z,1.20
2023-04-24T16:57:08.223Z,1.27
2023-04-24T16:59:35.615Z,1.30
2023-04-24T17:02:02.987Z,1.20
2023-04-24T17:04:32.347Z,1.13
2023-04-24T17:07:01.324Z,1.50
2023-04-24T17:09:29.322Z,1.20
2023-04-24T17:11:57.456Z,1.65
2023-04-24T17:14:26.884Z,1.40
2023-04-24T17:16:54.203Z,1.35
2023-04-24T17:19:22.216Z,1.40
2023-04-24T17:21:51.566Z,1.63
2023-04-24T17:24:19.728Z,1.48
2023-04-24T17:26:47.427Z,1.67
2023-04-24T17:29:15.636Z,1.50
2023-04-24T17:31:43.426Z,2.10
2023-04-24T17:34:11.140Z,1.55
2023-04-24T17:36:38.990Z,1.60
2023-04-24T17:39:07.341Z,1.67
2023-04-24T17:41:35.113Z,2.08
2023-04-24T17:44:02.969Z,2.30
2023-04-24T17:46:31.578Z,1.90
2023-04-24T17:48:59.509Z,1.85
2023-04-24T17:51:27.974Z,1.95
2023-04-24T17:53:55.650Z,2.60
2023-04-24T17:56:25.428Z,2.17
2023-04-24T17:58:53.993Z,2.00
2023-04-24T18:01:22.046Z,2.38
2023-04-24T18:03:50.019Z,2.20
2023-04-24T18:06:19.131Z,2.30
2023-04-24T18:08:46.901Z,2.53
2023-04-24T18:11:17.783Z,2.03
2023-04-24T18:13:46.717Z,2.40
2023-04-24T18:16:14.527Z,2.30
2023-04-24T18:18:42.679Z,2.35
2023-04-24T18:21:10.543Z,2.83
2023-04-24T18:23:38.066Z,2.65
2023-04-24T18:26:05.774Z,2.58
2023-04-24T18:28:35.466Z,2.78
2023-04-24T18:31:03.565Z,3.00
2023-04-24T18:33:31.856Z,2.63
2023-04-24T18:36:01.049Z,2.80
2023-04-24T18:38:28.897Z,2.88
2023-04-24T18:40:56.835Z,2.40
2023-04-24T18:43:25.037Z,2.28
2023-04-24T18:45:52.494Z,2.70
2023-04-24T18:48:20.230Z,2.20
2023-04-24T18:50:48.128Z,2.35
2023-04-24T18:53:18.569Z,2.47
2023-04-24T18:55:46.378Z,2.28
2023-04-24T18:58:13.968Z,2.65
2023-04-24T19:00:41.498Z,2.03
2023-04-24T19:03:12.853Z,1.80
2023-04-24T19:05:41.217Z,1.77
2023-04-24T19:08:11.273Z,2.30
2023-04-24T19:10:39.072Z,2.35
2023-04-24T19:13:06.980Z,2.08
2023-04-24T19:15:37.341Z,2.28
2023-04-24T19:18:07.103Z,1.92
2023-04-24T19:20:35.227Z,2.17
2023-04-24T19:23:02.834Z,2.40
2023-04-24T19:25:30.736Z,2.00
2023-04-24T19:28:04.950Z,1.90
2023-04-24T19:30:32.532Z,2.25
2023-04-24T19:33:00.138Z,2.20
2023-04-24T19:35:28.450Z,1.75
2023-04-24T19:37:56.604Z,2.20
2023-04-24T19:40:24.396Z,1.95
2023-04-24T19:42:53.760Z,2.50
2023-04-24T19:45:21.337Z,2.42
2023-04-24T19:47:49.521Z,2.47
2023-04-24T19:50:17.364Z,2.50
2023-04-24T19:52:45.470Z,2.20
2023-04-24T19:55:12.784Z,2.13
2023-04-24T19:57:40.057Z,2.28
2023-04-24T20:00:08.882Z,2.60
2023-04-24T20:02:36.553Z,2.28
2023-04-24T20:05:06.098Z,2.55
2023-04-24T20:07:34.027Z,2.33
2023-04-24T20:10:01.371Z,2.65
2023-04-24T20:12:28.580Z,2.55
2023-04-24T20:14:55.917Z,2.45
2023-04-24T20:17:23.030Z,2.55
2023-04-24T20:19:51.147Z,2.30
2023-04-24T20:22:18.311Z,2.67
2023-04-24T20:24:46.224Z,2.88
2023-04-24T20:27:13.604Z,2.72
2023-04-24T20:29:41.092Z,2.38
2023-04-24T20:32:08.937Z,2.72
2023-04-24T20:34:36.641Z,2.88
2023-04-24T20:37:04.183Z,2.85
2023-04-24T20:39:31.338Z,2.92
2023-04-24T20:41:58.833Z,2.10
2023-04-24T20:44:26.017Z,2.70
2023-04-24T20:46:53.183Z,2.28
2023-04-24T20:49:20.370Z,2.60
2023-04-24T20:51:47.643Z,3.38
2023-04-24T20:54:14.845Z,2.70
2023-04-24T20:56:41.952Z,2.38
2023-04-24T20:59:09.110Z,2.80
2023-04-24T21:01:36.212Z,2.50
2023-04-24T21:04:03.744Z,2.50
2023-04-24T21:06:31.981Z,2.30
2023-04-24T21:08:59.113Z,2.15
2023-04-24T21:11:26.175Z,2.25
2023-04-24T21:13:53.355Z,2.30
2023-04-24T21:16:20.936Z,2.47
2023-04-24T21:18:48.027Z,1.95
2023-04-24T21:21:15.117Z,2.00
2023-04-24T21:23:42.188Z,1.95
2023-04-24T21:26:10.228Z,2.28
2023-04-24T21:28:37.465Z,2.20
2023-04-24T21:31:04.714Z,2.30
2023-04-24T21:33:31.788Z,2.25
2023-04-24T21:35:58.886Z,2.30
2023-04-24T21:38:26.210Z,2.10
2023-04-24T21:40:53.312Z,2.95
2023-04-24T21:43:30.468Z,2.50
2023-04-24T21:46:00.989Z,2.22
2023-04-24T21:48:28.146Z,2.60
2023-04-24T21:50:55.238Z,2.30
2023-04-24T21:53:22.338Z,2.13
2023-04-24T21:55:49.492Z,2.30
2023-04-24T21:58:16.688Z,2.58
2023-04-24T22:00:43.797Z,2.40
2023-04-24T22:03:11.484Z,2.30
2023-04-24T22:05:38.740Z,2.35
2023-04-24T22:08:07.303Z,2.20
2023-04-24T22:10:34.426Z,2.15
2023-04-24T22:13:01.531Z,1.80
2023-04-24T22:15:28.830Z,2.55
2023-04-24T22:17:57.668Z,2.28
2023-04-24T22:20:25.969Z,1.92
2023-04-24T22:22:54.574Z,2.00
2023-04-24T22:25:21.659Z,1.50
2023-04-24T22:27:48.791Z,2.08
2023-04-24T22:30:15.969Z,1.70
2023-04-24T22:32:43.194Z,2.10
2023-04-24T22:35:10.348Z,1.73
2023-04-24T22:37:37.554Z,1.42
2023-04-24T22:40:08.131Z,1.67
2023-04-24T22:42:35.500Z,1.55
2023-04-24T22:45:02.735Z,1.60
2023-04-24T22:47:29.923Z,1.60
2023-04-24T22:49:58.515Z,1.75
2023-04-24T22:52:28.893Z,1.60
2023-04-24T22:54:56.135Z,1.40
2023-04-24T22:57:23.392Z,2.25
2023-04-24T22:59:50.534Z,1.55
2023-04-24T23:02:17.718Z,1.40
2023-04-24T23:04:44.926Z,1.50
2023-04-24T23:07:12.070Z,1.40
2023-04-24T23:09:39.106Z,1.35
2023-04-24T23:12:06.462Z,1.58
2023-04-24T23:14:34.504Z,1.50
2023-04-24T23:17:01.633Z,1.77
2023-04-24T23:19:28.944Z,1.80
2023-04-24T23:21:56.150Z,1.48
2023-04-24T23:24:23.229Z,1.25
2023-04-24T23:26:50.375Z,1.70
2023-04-24T23:29:17.458Z,1.50
2023-04-24T23:31:44.623Z,1.55
2023-04-24T23:34:11.716Z,1.50
2023-04-24T23:36:38.800Z,1.35
2023-04-24T23:39:06.872Z,1.70
2023-04-24T23:41:34.222Z,1.20
2023-04-24T23:44:01.454Z,1.65
2023-04-24T23:46:28.614Z,1.50
2023-04-24T23:48:55.856Z,1.63
2023-04-24T23:51:23.130Z,1.92
2023-04-24T23:53:50.582Z,1.45
2023-04-24T23:56:17.938Z,2.10
2023-04-24T23:58:46.799Z,1.75
